Welkom

[Source: ADDS]
METAR
EBBR 060520Z 20013KT 9999 SCT025 04/01 Q1013 TEMPO 3000 RADZ BKN005 =
EBBR 060501Z 0606/0712 21015G30KT 6000 SCT006 BKN010 TEMPO 0606/0618 3000 RA RADZ BKN005 BECMG 0618/0620 SCT015 TEMPO 0619/0622 4000 SHRA SCT006 BKN012TCU BECMG 0620/0622 25011KT
TAF
EBBR 060501Z 0606/0712 21015G30KT 6000 SCT006 BKN010 TEMPO 0606/0618 3000 RA RADZ BKN005 BECMG 0618/0620 SCT015 TEMPO 0619/0622 4000 SHRA SCT006 BKN012TCU BECMG 0620/0622 25011KT =

Visweer Vlissingen

StormCell is een non profit organisatie zonder oogmerk tot sensatie